Share

Page, AZ

Page PWS #2 (KAZPAGE2) Elev 4177 ft | 36.91 °N, 111.47 °W | Change Station

Current weather conditions updated 3 seconds ago

Clear
Clear
66.9 °F
Feels Like 66.9 °F
N
1.0
Wind Variable Wind from WNW
Gusts 11.0 mph
Sunrise 5:46 AM
Sunset 7:04 PM
Moon Waning Gibbous

Today is forecast to be Cooler than yesterday.

Pressure 29.94 in
Visibility 10.0 miles
Clouds Clear
Dew Point 37 °F
Humidity 33%
Rainfall 0.00 in
Snow Depth Not available.
UV 10 out of 16
Pollen 8.30 out of 12
Air Quality Not available.
Flu Activity Local Activity
METAR KPGA 191753Z AUTO 34005KT 10SM CLR 18/03 A3006 RMK AO2 SLP136 T01780028 10183 20133 50001 TSNO $

More Conditions Fewer Conditions

Pressure 29.94 in
Visibility 10.0 miles
Clouds Clear
Dew Point 37 °F
Humidity 33%
Rainfall 0.00 in
Snow Depth Not available.
UV 10 out of 16
Pollen 8.30 out of 12
Air Quality Not available.
Flu Activity Local Activity
METAR KPGA 191753Z AUTO 34005KT 10SM CLR 18/03 A3006 RMK AO2 SLP136 T01780028 10183 20133 50001 TSNO $

More Conditions Fewer Conditions

10-Day Weather Forecast

Almanac

Astronomy

Apr. 19, 2014 Rise Set
Actual Time 5:46 AM MST 7:04 PM MST
Civil Twilight 5:19 AM MST 7:31 PM MST
Nautical Twilight 4:47 AM MST 8:03 PM MST
Astronomical Twilight 4:13 AM MST 8:37 PM MST
Moon 11:45 PM MST 9:11 AM MST
Length of Visible Light 14h 11m
Length of Day
13h 17m
Tomorrow will be 2m 12s longer.
Waning Gibbous, 77% of the Moon is Illuminated
Today
Waning Gibbous
Apr 22
Last Quarter
Apr 29
New
May 6
First Quarter
May 14
Full

Today's Extremes

State Highs State Lows

Community

  • Piriapolis
    Piriapolis
  • A Glorious Morning
    A Glorious Morning
  • Tender Rays Of Hope
    Tender Rays Of Hope
  • Bleeding Hearts
    Bleeding Hearts
  • Sunset Silhouettes
    Sunset Silhouettes

WunderPhotos

Upload Photos

1,702,840 photos uploaded!

WunderBlogs® & News

Nearby

Snow Depth

Station Depth Elevation
Snowslide Canyon 6 in 9730 ft
Happy Jack 0 in 7630 ft
Promontory 0 in 7930 ft
Heber 0 in 7640 ft
Workman Creek 0 in 6900 ft

Coastal Water Temperatures

Place Temperature
No Stations Reporting

Earthquake Activity

City Distance Mag. Time & Date
No recent earthquake activity has been reported nearby.
Minimum magnitude displayed is 2.5.

Nearby Weather Stations

Station Location Temp. Dew Point Humidity Wind Precip. Elev Updated Type
Page PWS #2, Page, AZ 66.9 °F 37 °F 33% WNW  at  1.0 mph 0.00 in / hr 4177 ft 11:48 AM MST Rapid Fire
Page Arizona, Page, AZ 67.3 °F 38 °F 34% NW  at  2.0 mph 0.00 in / hr 4172 ft 11:48 AM MST Rapid Fire
HADS PAGE 9 WSW AZ, Marble Canyon, AZ 67 °F - - North  at  - 0.00 in / hr 3254 ft 10:20 AM MST MADIS
RAWS PARIA POINT AZ, Page, AZ 57 °F 35 °F 43% SSE  at  4 mph 0.00 in / hr 7234 ft 11:00 AM MST MADIS

Show More Stations Show Fewer Stations

What do you think?

We're not finished. Please let us know what you like, what you don't like, and what you are still missing.